createdAt,value
2022-11-07T00:01:53.204Z,13.25
2022-11-07T00:06:56.730Z,14.20
2022-11-07T00:12:00.103Z,12.98
2022-11-07T00:17:04.872Z,13.52
2022-11-07T00:27:11.413Z,14.05
2022-11-07T00:32:16.160Z,15.27
2022-11-07T00:37:19.486Z,14.15
2022-11-07T00:42:23.046Z,14.35
2022-11-07T00:47:27.644Z,14.07
2022-11-07T00:52:31.775Z,15.20
2022-11-07T00:57:35.059Z,14.37
2022-11-07T01:02:39.808Z,14.07
2022-11-07T01:12:46.182Z,14.18
2022-11-07T01:17:50.952Z,14.82
2022-11-07T01:22:54.261Z,14.80
2022-11-07T01:27:57.492Z,14.63
2022-11-07T01:33:02.448Z,14.23
2022-11-07T01:38:06.449Z,14.82
2022-11-07T01:43:11.162Z,15.47
2022-11-07T01:48:15.999Z,15.77
2022-11-07T01:58:22.515Z,14.95
2022-11-07T02:03:27.426Z,14.88
2022-11-07T02:13:37.046Z,14.55
2022-11-07T02:18:44.850Z,14.10
2022-11-07T02:23:54.174Z,15.23
2022-11-07T02:28:59.833Z,14.82
2022-11-07T02:34:03.487Z,13.38
2022-11-07T02:39:06.875Z,13.13
2022-11-07T02:44:13.769Z,14.07
2022-11-07T02:49:17.246Z,13.32
2022-11-07T02:54:20.625Z,13.25
2022-11-07T02:59:27.193Z,12.98
2022-11-07T03:04:30.611Z,13.65
2022-11-07T03:09:34.131Z,13.25
2022-11-07T03:14:38.870Z,12.80
2022-11-07T03:19:42.220Z,13.18
2022-11-07T03:24:45.579Z,12.25
2022-11-07T03:29:50.467Z,11.57
2022-11-07T03:39:56.918Z,11.27
2022-11-07T03:45:01.630Z,11.02
2022-11-07T03:50:08.216Z,11.55
2022-11-07T03:55:12.732Z,11.45
2022-11-07T04:00:18.150Z,11.48
2022-11-07T04:05:21.606Z,10.18
2022-11-07T04:10:24.894Z,10.68
2022-11-07T04:15:46.644Z,11.13
2022-11-07T04:20:49.997Z,9.50
2022-11-07T04:26:10.582Z,10.18
2022-11-07T04:31:15.426Z,9.02
2022-11-07T04:41:25.010Z,8.27
2022-11-07T04:46:29.676Z,9.60
2022-11-07T04:51:33.251Z,9.00
2022-11-07T04:56:36.435Z,7.80
2022-11-07T05:01:41.072Z,7.97
2022-11-07T05:06:44.517Z,8.40
2022-11-07T05:11:48.521Z,7.40
2022-11-07T05:16:55.341Z,7.70
2022-11-07T05:22:12.535Z,7.70
2022-11-07T05:27:19.954Z,7.72
2022-11-07T05:32:25.114Z,8.25
2022-11-07T05:37:28.369Z,7.30
2022-11-07T05:42:31.876Z,7.00
2022-11-07T05:47:36.615Z,7.68
2022-11-07T05:52:40.276Z,7.00
2022-11-07T05:57:43.664Z,7.68
2022-11-07T06:02:56.070Z,7.78
2022-11-07T06:07:59.568Z,7.55
2022-11-07T06:13:05.014Z,7.97
2022-11-07T06:18:14.957Z,7.90
2022-11-07T06:23:19.088Z,7.97
2022-11-07T06:28:22.928Z,7.93
2022-11-07T06:33:27.588Z,7.05
2022-11-07T06:38:31.014Z,6.82
2022-11-07T06:43:35.212Z,7.22
2022-11-07T06:48:39.964Z,7.50
2022-11-07T06:53:43.208Z,7.03
2022-11-07T06:58:46.443Z,7.25
2022-11-07T07:03:51.056Z,7.68
2022-11-07T07:08:54.608Z,7.90
2022-11-07T07:14:02.095Z,7.22
2022-11-07T07:19:07.841Z,7.53
2022-11-07T07:24:11.252Z,7.35
2022-11-07T07:29:14.531Z,8.05
2022-11-07T07:34:19.173Z,7.60
2022-11-07T07:39:23.855Z,7.82
2022-11-07T07:44:27.138Z,7.03
2022-11-07T07:49:31.747Z,8.52
2022-11-07T07:54:35.009Z,7.95
2022-11-07T07:59:38.363Z,8.63
2022-11-07T08:04:43.668Z,7.30
2022-11-07T08:09:47.183Z,7.22
2022-11-07T08:14:50.445Z,7.97
2022-11-07T08:19:55.266Z,8.05
2022-11-07T08:24:58.506Z,7.85
2022-11-07T08:30:01.796Z,7.28
2022-11-07T08:35:09.358Z,7.22
2022-11-07T08:40:14.465Z,7.30
2022-11-07T08:45:18.136Z,7.38
2022-11-07T08:50:22.934Z,6.78
2022-11-07T08:55:27.389Z,7.15
2022-11-07T09:00:30.872Z,7.00
2022-11-07T09:05:36.081Z,6.70
2022-11-07T09:10:39.444Z,7.45
2022-11-07T09:15:47.678Z,6.75
2022-11-07T09:20:56.063Z,7.10
2022-11-07T09:26:01.162Z,7.05
2022-11-07T09:31:06.180Z,6.85
2022-11-07T09:36:12.082Z,7.13
2022-11-07T09:41:25.975Z,8.23
2022-11-07T09:46:46.122Z,8.10
2022-11-07T09:51:53.616Z,7.82
2022-11-07T09:56:59.894Z,7.32
2022-11-07T10:02:05.108Z,7.90
2022-11-07T10:07:20.037Z,7.93
2022-11-07T10:12:44.530Z,7.63
2022-11-07T10:17:59.011Z,8.60
2022-11-07T10:23:23.445Z,8.70
2022-11-07T10:28:27.733Z,8.83
2022-11-07T10:33:40.197Z,9.38
2022-11-07T10:38:45.092Z,8.93
2022-11-07T10:48:58.945Z,8.23
2022-11-07T10:54:03.751Z,9.30
2022-11-07T10:59:13.883Z,9.52
2022-11-07T11:04:22.476Z,8.98
2022-11-07T11:09:32.926Z,9.27
2022-11-07T11:14:36.322Z,9.43
2022-11-07T11:19:43.115Z,8.98
2022-11-07T11:24:47.886Z,9.98
2022-11-07T11:29:59.476Z,10.02
2022-11-07T11:35:19.641Z,9.82
2022-11-07T11:40:24.573Z,9.70
2022-11-07T11:50:44.450Z,9.65
2022-11-07T11:55:59.237Z,9.77
2022-11-07T12:01:09.490Z,10.50
2022-11-07T12:06:16.398Z,11.18
2022-11-07T12:11:28.529Z,10.18
2022-11-07T12:16:40.340Z,10.73
2022-11-07T12:21:55.099Z,11.55
2022-11-07T12:27:11.092Z,12.18
2022-11-07T12:32:22.623Z,11.63
2022-11-07T12:37:43.117Z,13.65
2022-11-07T12:43:00.296Z,12.63
2022-11-07T12:48:19.937Z,13.55
2022-11-07T12:53:39.299Z,12.18
2022-11-07T12:58:46.834Z,12.55
2022-11-07T13:04:05.245Z,12.23
2022-11-07T13:09:18.756Z,12.85
2022-11-07T13:14:30.070Z,12.77
2022-11-07T13:19:35.135Z,13.27
2022-11-07T13:24:50.822Z,12.50
2022-11-07T13:29:55.683Z,12.02
2022-11-07T13:40:17.376Z,13.68
2022-11-07T13:45:28.372Z,13.05
2022-11-07T13:50:40.433Z,14.25
2022-11-07T13:55:48.143Z,13.82
2022-11-07T14:00:53.076Z,13.43
2022-11-07T14:05:57.422Z,14.70
2022-11-07T14:11:01.166Z,14.35
2022-11-07T14:16:09.162Z,15.80
2022-11-07T14:21:21.514Z,13.77
2022-11-07T14:26:28.346Z,16.15
2022-11-07T14:31:35.714Z,16.92
2022-11-07T14:36:47.397Z,17.38
2022-11-07T14:41:52.049Z,18.35
2022-11-07T14:46:57.154Z,17.23
2022-11-07T14:52:00.635Z,17.08
2022-11-07T14:57:05.909Z,16.80
2022-11-07T15:02:25.182Z,16.77
2022-11-07T15:07:30.272Z,17.45
2022-11-07T15:12:50.241Z,15.18
2022-11-07T15:17:56.911Z,15.73
2022-11-07T15:23:01.497Z,16.95
2022-11-07T15:28:24.104Z,16.83
2022-11-07T15:33:32.487Z,17.10
2022-11-07T15:38:35.954Z,17.40
2022-11-07T15:43:39.701Z,18.02
2022-11-07T15:48:46.914Z,17.20
2022-11-07T15:53:50.366Z,17.00
2022-11-07T15:58:55.369Z,16.45
2022-11-07T16:09:05.462Z,16.90
2022-11-07T16:14:42.257Z,16.60
2022-11-07T16:19:40.135Z,16.63
2022-11-07T16:24:43.889Z,15.75
2022-11-07T16:29:47.746Z,16.42
2022-11-07T16:34:52.591Z,16.77
2022-11-07T16:44:59.564Z,17.02
2022-11-07T16:50:04.595Z,16.33
2022-11-07T16:55:09.013Z,16.35
2022-11-07T17:00:21.136Z,17.17
2022-11-07T17:05:26.045Z,18.73
2022-11-07T17:15:32.289Z,17.80
2022-11-07T17:20:52.677Z,17.55
2022-11-07T17:25:59.792Z,17.45
2022-11-07T17:31:03.321Z,18.52
2022-11-07T17:36:21.947Z,17.25
2022-11-07T17:41:28.318Z,16.92
2022-11-07T17:46:36.675Z,17.88
2022-11-07T17:51:42.202Z,18.23
2022-11-07T17:56:45.522Z,17.17
2022-11-07T18:01:49.846Z,18.35
2022-11-07T18:06:54.914Z,18.63
2022-11-07T18:17:01.468Z,19.52
2022-11-07T18:22:06.387Z,20.52
2022-11-07T18:27:10.734Z,18.30
2022-11-07T18:32:16.884Z,19.85
2022-11-07T18:37:21.579Z,20.13
2022-11-07T18:42:24.834Z,21.13
2022-11-07T18:47:29.771Z,20.60
2022-11-07T18:57:38.980Z,20.10
2022-11-07T19:02:42.441Z,22.45
2022-11-07T19:07:47.345Z,22.48
2022-11-07T19:17:55.526Z,22.60
2022-11-07T19:23:00.220Z,22.60
2022-11-07T19:28:03.756Z,22.70
2022-11-07T19:33:08.154Z,22.95
2022-11-07T19:38:15.023Z,23.10
2022-11-07T19:43:18.750Z,22.77
2022-11-07T19:48:22.317Z,23.13
2022-11-07T19:53:27.630Z,22.55
2022-11-07T19:58:31.239Z,22.27
2022-11-07T20:03:34.700Z,23.55
2022-11-07T20:08:40.326Z,22.05
2022-11-07T20:13:44.465Z,23.38
2022-11-07T20:18:47.871Z,24.17
2022-11-07T20:23:54.093Z,24.20
2022-11-07T20:28:58.112Z,23.00
2022-11-07T20:34:03.924Z,20.70
2022-11-07T20:39:09.106Z,20.38
2022-11-07T20:44:14.677Z,21.98
2022-11-07T20:49:19.389Z,23.30
2022-11-07T20:59:27.878Z,20.52
2022-11-07T21:04:44.427Z,21.13
2022-11-07T21:09:56.581Z,22.80
2022-11-07T21:14:59.843Z,21.80
2022-11-07T21:20:04.233Z,21.83
2022-11-07T21:25:10.136Z,21.23
2022-11-07T21:30:14.153Z,21.73
2022-11-07T21:35:17.926Z,22.00
2022-11-07T21:40:22.678Z,21.45
2022-11-07T21:45:26.521Z,21.08
2022-11-07T21:50:45.654Z,20.20
2022-11-07T21:55:51.244Z,21.67
2022-11-07T22:00:54.668Z,22.23
2022-11-07T22:05:58.182Z,21.38
2022-11-07T22:11:03.060Z,20.15
2022-11-07T22:21:13.720Z,19.80
2022-11-07T22:26:20.209Z,20.77
2022-11-07T22:31:25.104Z,21.55
2022-11-07T22:41:33.407Z,18.60
2022-11-07T22:46:36.737Z,19.70
2022-11-07T22:51:40.216Z,21.20
2022-11-07T22:56:45.008Z,20.75
2022-11-07T23:01:48.502Z,20.67
2022-11-07T23:06:51.982Z,22.55
2022-11-07T23:11:56.713Z,22.77
2022-11-07T23:17:00.024Z,23.23
2022-11-07T23:22:03.341Z,23.25
2022-11-07T23:27:09.160Z,23.58
2022-11-07T23:32:12.613Z,21.13
2022-11-07T23:37:18.092Z,22.35
2022-11-07T23:42:22.805Z,21.40
2022-11-07T23:47:43.305Z,21.05
2022-11-07T23:52:46.653Z,20.25
2022-11-07T23:58:08.856Z,20.88
